Terminal Aerodrome Forecast
Issued by NWS Spokane, WA

Home | Current Version | Previous Version | Text Only | Print | Product List | Glossary On
Versions: 1 2 3 4 5 6 7 8 9 10 11 12 13 14 15 16 17 18 19 20 21 22 23 24
000
FTUS46 KOTX 241135
TAFEAT
TAF
KEAT 241135Z 2412/2512 31004KT P6SM BKN110 OVC200
     FM242200 14003KT P6SM VCSH FEW040 SCT080 BKN120
     FM250000 09003KT P6SM -RA SCT025 BKN060
      TEMPO 2502/2506 P6SM -RA BKN020 OVC050
     FM251000 VRB04KT P6SM VCSH BKN025 OVC060=

USA.gov is the U.S. government's official web portal to all federal, state and local government web resources and services.